Airfield :
LOGIN :

Register | Disclaimer

   EN    FR    IT 

 










Legend :    VFR   Marginal VFR   IFR   Intensive IFR   Very Intensive IFR
Visi :
Ceiling :
>= 8 km
>= 3000ft
5 to 8 km
1000 to 3000 ft
1500m to 5 km
500 to 1000 ft
800 to 1500m
200 to 500 ft
< 800m
< 200 ft
Symbols :   Thunderstorms  Fog  Heavy snow  Heavy precipitations  Wind > 20 kt
SIGMETs :     Misc.  Thunderstorms  Icing  Turbulence  Mountain Waves  Volcanic Ashes







- Airport Elevation : 39 ft
- IATA code : TRS


LIPQ - Friuli Venezia Giulia Apt. Trieste

CURRENT METAR :
  • 221320Z 08005KT 020V110 9999 FEW090 28/15 Q1020

EXPIRED METARs :
  • 221250Z 05003KT 310V090 9999 BKN090 27/15 Q1020
  • 221220Z 05003KT 360V090 9999 SCT045 BKN080 27/15 Q1020
  • 221150Z 08004KT 050V120 9999 BKN100 27/14 Q1020
  • 221120Z 10008KT 9999 BKN090 27/14 Q1020
  • 221050Z 08007KT 050V120 9999 BKN100 27/14 Q1020

TAF TAF LIPQ
Valid from the 22 at 12:00 until the 23 at 12:00 UTC


221100Z 2212/2312 08012KT 9999 SCT040
No reported NOTAMs for that airfield.



MET'MAP, your aeronautical weather chart ! - Copyright ORBIFLY December 2007 - Disclaimer

ORBIFLY MET'MAP TEAM :

Programming & Development : Alexandra Zaïnal
Concept & Development : Baudouin d'Aumeries
Co-Development & Prog : Marc-Olivier Méhu
Technical & hardware support : Manuel Goepfert

Contact : metmap@orbifly.com




SOURCES & CREDITS :

   NOAA